Terminal Aerodrome Forecast
Issued by NWS Mt. Holly, NJ

Home | Current Version | Previous Version | Text Only | Print | Product List | Glossary On
Versions: 1 2 3 4 5 6 7 8 9 10 11 12 13 14 15 16 17 18 19
000
FTUS41 KPHI 260500
TAFRDG
TAF
KRDG 260537Z 2606/2706 36006KT P6SM OVC100
     FM261100 04005KT 3SM -RASN OVC040
     FM261400 01010KT 1SM -SN BR OVC007
      TEMPO 2615/2619 1/2SM SN FG OVC003
     FM262300 32010KT 3SM -SN BR OVC015
     FM270400 32007KT 5SM BR BKN025=

USA.gov is the U.S. government's official web portal to all federal, state and local government web resources and services.